sensor_id;sensor_type;location;lat;lon;timestamp;pressure;altitude;pressure_sealevel;temperature;humidity
20119;BME280;10220;42.716;23.306;2022-11-04T00:00:14;95395.31;;;16.54;98.51
20119;BME280;10220;42.716;23.306;2022-11-04T00:02:39;95406.63;;;16.43;98.53
20119;BME280;10220;42.716;23.306;2022-11-04T00:05:05;95401.03;;;16.79;100.00
20119;BME280;10220;42.716;23.306;2022-11-04T00:07:30;95403.16;;;16.26;100.00
20119;BME280;10220;42.716;23.306;2022-11-04T00:10:15;95405.69;;;16.49;99.09
20119;BME280;10220;42.716;23.306;2022-11-04T00:12:40;95404.81;;;16.71;100.00
20119;BME280;10220;42.716;23.306;2022-11-04T00:15:06;95416.81;;;17.11;100.00
20119;BME280;10220;42.716;23.306;2022-11-04T00:17:49;95412.59;;;16.66;88.95
20119;BME280;10220;42.716;23.306;2022-11-04T00:20:15;95403.28;;;16.87;99.36
20119;BME280;10220;42.716;23.306;2022-11-04T00:22:59;95382.66;;;17.23;96.44
20119;BME280;10220;42.716;23.306;2022-11-04T00:25:43;95374.41;;;16.98;96.45
20119;BME280;10220;42.716;23.306;2022-11-04T00:28:26;95400.09;;;17.29;90.04
20119;BME280;10220;42.716;23.306;2022-11-04T00:31:08;95377.81;;;17.15;92.99
20119;BME280;10220;42.716;23.306;2022-11-04T00:33:53;95415.88;;;17.66;93.56
20119;BME280;10220;42.716;23.306;2022-11-04T00:36:19;95397.53;;;17.66;90.55
20119;BME280;10220;42.716;23.306;2022-11-04T00:38:45;95398.00;;;17.14;83.83
20119;BME280;10220;42.716;23.306;2022-11-04T00:41:11;95403.22;;;17.14;94.45
20119;BME280;10220;42.716;23.306;2022-11-04T00:43:59;95379.47;;;16.44;91.92
20119;BME280;10220;42.716;23.306;2022-11-04T00:46:26;95394.91;;;15.84;100.00
20119;BME280;10220;42.716;23.306;2022-11-04T00:48:51;95367.41;;;15.81;100.00
20119;BME280;10220;42.716;23.306;2022-11-04T00:51:17;95397.69;;;16.16;99.87
20119;BME280;10220;42.716;23.306;2022-11-04T00:53:43;95397.78;;;16.21;100.00
20119;BME280;10220;42.716;23.306;2022-11-04T00:56:09;95369.00;;;16.44;99.61
20119;BME280;10220;42.716;23.306;2022-11-04T00:58:34;95389.72;;;16.23;100.00
20119;BME280;10220;42.716;23.306;2022-11-04T01:01:00;95380.44;;;16.15;98.51
20119;BME280;10220;42.716;23.306;2022-11-04T01:03:25;95402.09;;;15.77;100.00
20119;BME280;10220;42.716;23.306;2022-11-04T01:05:50;95400.72;;;15.28;100.00
20119;BME280;10220;42.716;23.306;2022-11-04T01:08:16;95389.03;;;15.77;100.00
20119;BME280;10220;42.716;23.306;2022-11-04T01:10:41;95386.69;;;15.00;100.00
20119;BME280;10220;42.716;23.306;2022-11-04T01:13:12;95382.31;;;15.58;100.00
20119;BME280;10220;42.716;23.306;2022-11-04T01:15:37;95366.75;;;15.74;100.00
20119;BME280;10220;42.716;23.306;2022-11-04T01:18:03;95343.75;;;14.62;99.82
20119;BME280;10220;42.716;23.306;2022-11-04T01:20:30;95328.94;;;13.98;100.00
20119;BME280;10220;42.716;23.306;2022-11-04T01:22:56;95348.63;;;14.41;100.00
20119;BME280;10220;42.716;23.306;2022-11-04T01:25:21;95305.16;;;14.53;100.00
20119;BME280;10220;42.716;23.306;2022-11-04T01:27:47;95365.28;;;15.78;100.00
20119;BME280;10220;42.716;23.306;2022-11-04T01:30:12;95343.16;;;16.08;100.00
20119;BME280;10220;42.716;23.306;2022-11-04T01:32:38;95336.38;;;16.63;99.05
20119;BME280;10220;42.716;23.306;2022-11-04T01:35:04;95348.34;;;16.59;96.08
20119;BME280;10220;42.716;23.306;2022-11-04T01:37:29;95337.75;;;16.82;92.80
20119;BME280;10220;42.716;23.306;2022-11-04T01:39:55;95364.03;;;15.58;96.08
20119;BME280;10220;42.716;23.306;2022-11-04T01:42:21;95386.53;;;15.47;100.00
20119;BME280;10220;42.716;23.306;2022-11-04T01:44:52;95359.66;;;14.83;100.00
20119;BME280;10220;42.716;23.306;2022-11-04T01:50:04;95335.69;;;13.69;100.00
20119;BME280;10220;42.716;23.306;2022-11-04T01:52:36;95338.72;;;14.49;100.00
20119;BME280;10220;42.716;23.306;2022-11-04T01:55:11;95355.94;;;14.91;100.00
20119;BME280;10220;42.716;23.306;2022-11-04T01:57:40;95358.25;;;15.56;100.00
20119;BME280;10220;42.716;23.306;2022-11-04T02:00:07;95333.28;;;15.26;96.98
20119;BME280;10220;42.716;23.306;2022-11-04T02:02:36;95352.66;;;14.55;100.00
20119;BME280;10220;42.716;23.306;2022-11-04T02:05:05;95352.31;;;14.51;100.00
20119;BME280;10220;42.716;23.306;2022-11-04T02:07:30;95336.63;;;14.40;100.00
20119;BME280;10220;42.716;23.306;2022-11-04T02:09:57;95356.94;;;14.90;100.00
20119;BME280;10220;42.716;23.306;2022-11-04T02:12:22;95342.97;;;13.79;100.00
20119;BME280;10220;42.716;23.306;2022-11-04T02:15:07;95320.97;;;14.28;100.00
20119;BME280;10220;42.716;23.306;2022-11-04T02:17:37;95339.66;;;13.72;100.00
20119;BME280;10220;42.716;23.306;2022-11-04T02:20:24;95340.75;;;13.47;100.00
20119;BME280;10220;42.716;23.306;2022-11-04T02:23:33;95328.72;;;13.28;100.00
20119;BME280;10220;42.716;23.306;2022-11-04T02:29:20;95323.41;;;13.58;100.00
20119;BME280;10220;42.716;23.306;2022-11-04T02:34:42;95316.19;;;14.66;100.00
20119;BME280;10220;42.716;23.306;2022-11-04T02:40:13;95322.31;;;14.31;100.00
20119;BME280;10220;42.716;23.306;2022-11-04T02:42:56;95320.97;;;14.69;100.00
20119;BME280;10220;42.716;23.306;2022-11-04T02:45:29;95324.38;;;14.81;100.00
20119;BME280;10220;42.716;23.306;2022-11-04T02:48:04;95292.75;;;13.60;100.00
20119;BME280;10220;42.716;23.306;2022-11-04T02:50:34;95312.31;;;13.45;100.00
20119;BME280;10220;42.716;23.306;2022-11-04T02:53:11;95334.81;;;14.11;100.00
20119;BME280;10220;42.716;23.306;2022-11-04T02:55:48;95317.53;;;14.28;100.00
20119;BME280;10220;42.716;23.306;2022-11-04T02:58:21;95313.75;;;15.28;100.00
20119;BME280;10220;42.716;23.306;2022-11-04T03:00:48;95280.81;;;15.61;97.53
20119;BME280;10220;42.716;23.306;2022-11-04T03:03:20;95332.44;;;15.02;97.77
20119;BME280;10220;42.716;23.306;2022-11-04T03:05:49;95289.44;;;15.05;99.36
20119;BME280;10220;42.716;23.306;2022-11-04T03:08:24;95324.44;;;15.49;98.17
20119;BME280;10220;42.716;23.306;2022-11-04T03:10:59;95265.41;;;15.37;95.94
20119;BME280;10220;42.716;23.306;2022-11-04T03:13:40;95315.34;;;15.40;99.06
20119;BME280;10220;42.716;23.306;2022-11-04T03:16:20;95317.72;;;15.42;98.37
20119;BME280;10220;42.716;23.306;2022-11-04T03:18:59;95317.75;;;14.67;100.00
20119;BME280;10220;42.716;23.306;2022-11-04T03:21:27;95281.97;;;14.74;98.29
20119;BME280;10220;42.716;23.306;2022-11-04T03:23:55;95309.22;;;14.49;99.31
20119;BME280;10220;42.716;23.306;2022-11-04T03:26:43;95332.56;;;14.44;100.00
20119;BME280;10220;42.716;23.306;2022-11-04T03:29:32;95318.47;;;13.86;100.00
20119;BME280;10220;42.716;23.306;2022-11-04T03:34:45;95327.09;;;15.88;97.68
20119;BME280;10220;42.716;23.306;2022-11-04T03:37:10;95315.13;;;15.30;91.48
20119;BME280;10220;42.716;23.306;2022-11-04T03:39:36;95308.66;;;15.10;98.27
20119;BME280;10220;42.716;23.306;2022-11-04T03:42:04;95317.25;;;15.56;95.78
20119;BME280;10220;42.716;23.306;2022-11-04T03:44:47;95326.19;;;14.28;97.50
20119;BME280;10220;42.716;23.306;2022-11-04T03:47:13;95280.31;;;13.45;100.00
20119;BME280;10220;42.716;23.306;2022-11-04T03:49:38;95322.00;;;13.92;100.00
20119;BME280;10220;42.716;23.306;2022-11-04T03:52:04;95304.81;;;13.91;100.00
20119;BME280;10220;42.716;23.306;2022-11-04T03:54:29;95324.63;;;14.39;100.00
20119;BME280;10220;42.716;23.306;2022-11-04T04:02:31;95305.41;;;13.39;100.00
20119;BME280;10220;42.716;23.306;2022-11-04T04:05:21;95315.00;;;13.56;100.00
20119;BME280;10220;42.716;23.306;2022-11-04T04:10:30;95313.16;;;13.46;100.00
20119;BME280;10220;42.716;23.306;2022-11-04T04:16:06;95272.75;;;12.28;100.00
20119;BME280;10220;42.716;23.306;2022-11-04T04:18:39;95307.56;;;12.51;100.00
20119;BME280;10220;42.716;23.306;2022-11-04T04:21:07;95306.69;;;12.64;100.00
20119;BME280;10220;42.716;23.306;2022-11-04T04:23:34;95274.66;;;12.15;100.00
20119;BME280;10220;42.716;23.306;2022-11-04T04:26:21;95307.78;;;12.50;100.00
20119;BME280;10220;42.716;23.306;2022-11-04T04:29:06;95294.91;;;12.30;100.00
20119;BME280;10220;42.716;23.306;2022-11-04T04:31:35;95312.97;;;12.19;100.00
20119;BME280;10220;42.716;23.306;2022-11-04T04:34:35;95313.22;;;12.11;100.00
20119;BME280;10220;42.716;23.306;2022-11-04T04:37:10;95331.13;;;11.88;100.00
20119;BME280;10220;42.716;23.306;2022-11-04T04:39:58;95291.75;;;11.91;100.00
20119;BME280;10220;42.716;23.306;2022-11-04T04:42:43;95253.13;;;11.71;100.00
20119;BME280;10220;42.716;23.306;2022-11-04T04:45:31;95271.00;;;11.91;100.00
20119;BME280;10220;42.716;23.306;2022-11-04T04:47:57;95307.66;;;12.38;100.00
20119;BME280;10220;42.716;23.306;2022-11-04T04:50:27;95297.91;;;13.07;100.00
20119;BME280;10220;42.716;23.306;2022-11-04T04:52:55;95313.28;;;13.33;100.00
20119;BME280;10220;42.716;23.306;2022-11-04T04:55:22;95248.00;;;13.16;100.00
20119;BME280;10220;42.716;23.306;2022-11-04T04:57:48;95262.59;;;12.75;100.00
20119;BME280;10220;42.716;23.306;2022-11-04T05:00:19;95319.56;;;13.25;100.00
20119;BME280;10220;42.716;23.306;2022-11-04T05:02:45;95231.97;;;12.77;100.00
20119;BME280;10220;42.716;23.306;2022-11-04T05:05:11;95285.41;;;12.97;100.00
20119;BME280;10220;42.716;23.306;2022-11-04T05:07:40;95308.06;;;13.86;100.00
20119;BME280;10220;42.716;23.306;2022-11-04T05:10:07;95316.84;;;13.74;100.00
20119;BME280;10220;42.716;23.306;2022-11-04T05:12:34;95287.53;;;13.60;100.00
20119;BME280;10220;42.716;23.306;2022-11-04T05:15:18;95293.09;;;13.28;100.00
20119;BME280;10220;42.716;23.306;2022-11-04T05:17:43;95271.59;;;12.97;100.00
20119;BME280;10220;42.716;23.306;2022-11-04T05:20:09;95300.97;;;12.25;100.00
20119;BME280;10220;42.716;23.306;2022-11-04T05:22:35;95314.38;;;12.77;100.00
20119;BME280;10220;42.716;23.306;2022-11-04T05:25:00;95274.56;;;13.00;100.00
20119;BME280;10220;42.716;23.306;2022-11-04T05:27:25;95315.44;;;13.36;100.00
20119;BME280;10220;42.716;23.306;2022-11-04T05:29:51;95292.53;;;13.26;100.00
20119;BME280;10220;42.716;23.306;2022-11-04T05:32:16;95319.28;;;13.51;100.00
20119;BME280;10220;42.716;23.306;2022-11-04T05:34:42;95304.66;;;13.14;100.00
20119;BME280;10220;42.716;23.306;2022-11-04T05:37:07;95325.44;;;12.96;100.00
20119;BME280;10220;42.716;23.306;2022-11-04T05:39:33;95347.06;;;13.15;100.00
20119;BME280;10220;42.716;23.306;2022-11-04T05:41:58;95271.88;;;12.89;100.00
20119;BME280;10220;42.716;23.306;2022-11-04T05:44:25;95329.16;;;13.25;100.00
20119;BME280;10220;42.716;23.306;2022-11-04T05:46:50;95337.56;;;13.45;100.00
20119;BME280;10220;42.716;23.306;2022-11-04T05:49:16;95325.97;;;13.23;100.00
20119;BME280;10220;42.716;23.306;2022-11-04T05:51:41;95358.69;;;13.72;100.00
20119;BME280;10220;42.716;23.306;2022-11-04T05:54:07;95320.00;;;13.58;100.00
20119;BME280;10220;42.716;23.306;2022-11-04T05:56:33;95350.50;;;13.51;100.00
20119;BME280;10220;42.716;23.306;2022-11-04T05:58:59;95358.94;;;13.29;100.00
20119;BME280;10220;42.716;23.306;2022-11-04T06:03:51;95360.31;;;12.83;100.00
20119;BME280;10220;42.716;23.306;2022-11-04T06:06:17;95346.19;;;12.48;100.00
20119;BME280;10220;42.716;23.306;2022-11-04T06:08:42;95341.19;;;12.09;100.00
20119;BME280;10220;42.716;23.306;2022-11-04T06:11:08;95309.00;;;11.79;100.00
20119;BME280;10220;42.716;23.306;2022-11-04T06:13:33;95354.59;;;12.06;100.00
20119;BME280;10220;42.716;23.306;2022-11-04T06:15:58;95340.63;;;12.01;100.00
20119;BME280;10220;42.716;23.306;2022-11-04T06:18:24;95347.97;;;12.17;100.00
20119;BME280;10220;42.716;23.306;2022-11-04T06:20:49;95357.41;;;11.98;100.00
20119;BME280;10220;42.716;23.306;2022-11-04T06:23:15;95358.28;;;11.86;100.00
20119;BME280;10220;42.716;23.306;2022-11-04T06:25:40;95368.16;;;12.08;100.00
20119;BME280;10220;42.716;23.306;2022-11-04T06:28:05;95341.13;;;12.22;100.00
20119;BME280;10220;42.716;23.306;2022-11-04T06:30:31;95355.13;;;12.21;100.00
20119;BME280;10220;42.716;23.306;2022-11-04T06:32:56;95354.84;;;12.66;100.00
20119;BME280;10220;42.716;23.306;2022-11-04T06:35:22;95364.22;;;12.36;100.00
20119;BME280;10220;42.716;23.306;2022-11-04T06:37:47;95359.53;;;12.51;100.00
20119;BME280;10220;42.716;23.306;2022-11-04T06:40:12;95326.69;;;12.32;100.00
20119;BME280;10220;42.716;23.306;2022-11-04T06:42:38;95316.72;;;12.23;100.00
20119;BME280;10220;42.716;23.306;2022-11-04T06:45:04;95380.53;;;12.50;100.00
20119;BME280;10220;42.716;23.306;2022-11-04T06:47:29;95338.91;;;12.26;100.00
20119;BME280;10220;42.716;23.306;2022-11-04T06:49:54;95332.13;;;12.55;100.00
20119;BME280;10220;42.716;23.306;2022-11-04T06:52:20;95285.66;;;12.41;100.00
20119;BME280;10220;42.716;23.306;2022-11-04T06:54:45;95362.66;;;12.90;100.00
20119;BME280;10220;42.716;23.306;2022-11-04T06:57:12;95308.84;;;12.67;100.00
20119;BME280;10220;42.716;23.306;2022-11-04T06:59:37;95317.34;;;12.56;100.00
20119;BME280;10220;42.716;23.306;2022-11-04T07:02:03;95345.44;;;12.96;100.00
20119;BME280;10220;42.716;23.306;2022-11-04T07:04:29;95312.19;;;12.49;100.00
20119;BME280;10220;42.716;23.306;2022-11-04T07:06:54;95312.47;;;12.90;100.00
20119;BME280;10220;42.716;23.306;2022-11-04T07:09:19;95331.13;;;13.05;100.00
20119;BME280;10220;42.716;23.306;2022-11-04T07:11:45;95336.25;;;12.93;100.00
20119;BME280;10220;42.716;23.306;2022-11-04T07:14:11;95288.31;;;12.83;100.00
20119;BME280;10220;42.716;23.306;2022-11-04T07:16:37;95346.16;;;13.27;100.00
20119;BME280;10220;42.716;23.306;2022-11-04T07:19:03;95324.97;;;13.24;100.00
20119;BME280;10220;42.716;23.306;2022-11-04T07:21:29;95316.56;;;13.22;100.00
20119;BME280;10220;42.716;23.306;2022-11-04T07:23:54;95272.22;;;13.17;100.00
20119;BME280;10220;42.716;23.306;2022-11-04T07:26:20;95292.97;;;13.23;100.00
20119;BME280;10220;42.716;23.306;2022-11-04T07:28:46;95302.72;;;13.46;100.00
20119;BME280;10220;42.716;23.306;2022-11-04T07:31:12;95311.47;;;13.51;100.00
20119;BME280;10220;42.716;23.306;2022-11-04T07:33:37;95326.44;;;13.73;100.00
20119;BME280;10220;42.716;23.306;2022-11-04T07:36:05;95252.47;;;13.45;100.00
20119;BME280;10220;42.716;23.306;2022-11-04T07:38:31;95300.31;;;13.62;100.00
20119;BME280;10220;42.716;23.306;2022-11-04T07:40:57;95286.66;;;13.66;100.00
20119;BME280;10220;42.716;23.306;2022-11-04T07:43:23;95250.84;;;13.80;100.00
20119;BME280;10220;42.716;23.306;2022-11-04T07:46:02;95300.06;;;14.17;100.00
20119;BME280;10220;42.716;23.306;2022-11-04T07:48:28;95274.94;;;14.22;100.00
20119;BME280;10220;42.716;23.306;2022-11-04T07:50:55;95290.75;;;14.50;100.00
20119;BME280;10220;42.716;23.306;2022-11-04T07:53:20;95296.97;;;14.38;100.00
20119;BME280;10220;42.716;23.306;2022-11-04T07:55:46;95267.56;;;14.31;100.00
20119;BME280;10220;42.716;23.306;2022-11-04T07:58:15;95293.75;;;14.76;100.00
20119;BME280;10220;42.716;23.306;2022-11-04T08:00:40;95260.63;;;14.77;100.00
20119;BME280;10220;42.716;23.306;2022-11-04T08:03:05;95314.66;;;15.11;100.00
20119;BME280;10220;42.716;23.306;2022-11-04T08:05:31;95294.22;;;15.19;100.00
20119;BME280;10220;42.716;23.306;2022-11-04T08:07:56;95290.50;;;15.38;100.00
20119;BME280;10220;42.716;23.306;2022-11-04T08:10:22;95247.25;;;15.42;100.00
20119;BME280;10220;42.716;23.306;2022-11-04T08:12:47;95284.78;;;15.64;100.00
20119;BME280;10220;42.716;23.306;2022-11-04T08:15:13;95292.09;;;15.89;100.00
20119;BME280;10220;42.716;23.306;2022-11-04T08:17:38;95277.94;;;16.02;100.00
20119;BME280;10220;42.716;23.306;2022-11-04T08:20:04;95240.28;;;15.86;100.00
20119;BME280;10220;42.716;23.306;2022-11-04T08:22:30;95271.81;;;16.36;100.00
20119;BME280;10220;42.716;23.306;2022-11-04T08:24:55;95262.56;;;16.17;100.00
20119;BME280;10220;42.716;23.306;2022-11-04T08:27:20;95219.06;;;16.11;100.00
20119;BME280;10220;42.716;23.306;2022-11-04T08:29:47;95259.00;;;16.50;100.00
20119;BME280;10220;42.716;23.306;2022-11-04T08:32:13;95271.75;;;16.47;100.00
20119;BME280;10220;42.716;23.306;2022-11-04T08:34:38;95228.47;;;16.56;100.00
20119;BME280;10220;42.716;23.306;2022-11-04T08:37:04;95249.28;;;16.35;100.00
20119;BME280;10220;42.716;23.306;2022-11-04T08:39:29;95245.50;;;16.42;100.00
20119;BME280;10220;42.716;23.306;2022-11-04T08:41:55;95235.75;;;16.54;100.00
20119;BME280;10220;42.716;23.306;2022-11-04T08:44:21;95245.97;;;16.55;100.00
20119;BME280;10220;42.716;23.306;2022-11-04T08:46:46;95228.72;;;16.71;100.00
20119;BME280;10220;42.716;23.306;2022-11-04T08:49:12;95243.53;;;16.82;100.00
20119;BME280;10220;42.716;23.306;2022-11-04T08:51:40;95246.38;;;16.47;100.00
20119;BME280;10220;42.716;23.306;2022-11-04T08:54:07;95237.09;;;16.89;100.00
20119;BME280;10220;42.716;23.306;2022-11-04T08:56:34;95239.22;;;17.08;100.00
20119;BME280;10220;42.716;23.306;2022-11-04T08:59:00;95234.09;;;16.81;100.00
20119;BME280;10220;42.716;23.306;2022-11-04T09:01:27;95232.63;;;17.22;100.00
20119;BME280;10220;42.716;23.306;2022-11-04T09:03:53;95178.00;;;17.31;100.00
20119;BME280;10220;42.716;23.306;2022-11-04T09:06:24;95224.81;;;17.65;100.00
20119;BME280;10220;42.716;23.306;2022-11-04T09:08:50;95218.34;;;17.51;100.00
20119;BME280;10220;42.716;23.306;2022-11-04T09:11:16;95226.41;;;17.66;98.91
20119;BME280;10220;42.716;23.306;2022-11-04T09:13:42;95233.81;;;17.31;100.00
20119;BME280;10220;42.716;23.306;2022-11-04T09:16:10;95169.09;;;17.10;100.00
20119;BME280;10220;42.716;23.306;2022-11-04T09:18:36;95183.78;;;17.11;100.00
20119;BME280;10220;42.716;23.306;2022-11-04T09:21:03;95199.81;;;17.79;100.00
20119;BME280;10220;42.716;23.306;2022-11-04T09:23:29;95186.38;;;17.49;100.00
20119;BME280;10220;42.716;23.306;2022-11-04T09:25:55;95202.53;;;17.89;100.00
20119;BME280;10220;42.716;23.306;2022-11-04T09:28:23;95187.63;;;17.94;97.03
20119;BME280;10220;42.716;23.306;2022-11-04T09:30:48;95192.69;;;18.01;97.78
20119;BME280;10220;42.716;23.306;2022-11-04T09:33:15;95188.97;;;17.70;98.84
20119;BME280;10220;42.716;23.306;2022-11-04T09:35:41;95162.69;;;17.87;97.30
20119;BME280;10220;42.716;23.306;2022-11-04T09:38:06;95166.97;;;17.98;95.75
20119;BME280;10220;42.716;23.306;2022-11-04T09:40:34;95170.03;;;17.64;97.59
20119;BME280;10220;42.716;23.306;2022-11-04T09:45:50;95139.03;;;17.56;98.45
20119;BME280;10220;42.716;23.306;2022-11-04T09:50:52;95100.41;;;17.72;96.17
20119;BME280;10220;42.716;23.306;2022-11-04T09:53:37;95156.84;;;18.32;94.50
20119;BME280;10220;42.716;23.306;2022-11-04T09:56:24;95144.00;;;18.77;89.58
20119;BME280;10220;42.716;23.306;2022-11-04T09:58:53;95126.69;;;18.76;88.71
20119;BME280;10220;42.716;23.306;2022-11-04T10:01:33;95122.69;;;18.64;88.61
20119;BME280;10220;42.716;23.306;2022-11-04T10:06:34;95122.13;;;18.62;88.61
20119;BME280;10220;42.716;23.306;2022-11-04T10:14:46;95090.84;;;18.50;86.47
20119;BME280;10220;42.716;23.306;2022-11-04T10:22:33;95099.34;;;19.18;81.83
20119;BME280;10220;42.716;23.306;2022-11-04T10:27:32;95082.72;;;19.03;76.42
20119;BME280;10220;42.716;23.306;2022-11-04T10:30:03;95081.22;;;19.22;75.06
20119;BME280;10220;42.716;23.306;2022-11-04T10:35:19;95070.38;;;18.98;77.62
20119;BME280;10220;42.716;23.306;2022-11-04T10:37:47;95055.19;;;19.10;76.22
20119;BME280;10220;42.716;23.306;2022-11-04T10:40:28;95064.97;;;19.25;76.47
20119;BME280;10220;42.716;23.306;2022-11-04T10:42:58;95024.75;;;19.24;75.90
20119;BME280;10220;42.716;23.306;2022-11-04T10:46:14;95004.97;;;19.02;75.72
20119;BME280;10220;42.716;23.306;2022-11-04T10:48:20;94982.28;;;18.71;77.76
20119;BME280;10220;42.716;23.306;2022-11-04T10:50:54;95028.34;;;18.98;80.16
20119;BME280;10220;42.716;23.306;2022-11-04T10:53:24;95008.44;;;19.12;77.33
20119;BME280;10220;42.716;23.306;2022-11-04T10:58:27;95021.09;;;19.30;75.19
20119;BME280;10220;42.716;23.306;2022-11-04T11:00:54;94973.25;;;19.13;73.59
20119;BME280;10220;42.716;23.306;2022-11-04T11:03:37;94986.66;;;19.12;74.70
20119;BME280;10220;42.716;23.306;2022-11-04T11:08:45;94944.03;;;19.00;73.35
20119;BME280;10220;42.716;23.306;2022-11-04T11:11:11;94965.38;;;19.18;71.85
20119;BME280;10220;42.716;23.306;2022-11-04T11:13:40;94986.16;;;19.40;73.47
20119;BME280;10220;42.716;23.306;2022-11-04T11:16:18;94968.03;;;19.48;73.00
20119;BME280;10220;42.716;23.306;2022-11-04T11:19:06;94978.56;;;19.78;69.65
20119;BME280;10220;42.716;23.306;2022-11-04T11:21:42;94974.63;;;19.70;67.75
20119;BME280;10220;42.716;23.306;2022-11-04T11:24:28;94957.28;;;19.54;68.56
20119;BME280;10220;42.716;23.306;2022-11-04T11:27:00;94960.41;;;19.42;70.31
20119;BME280;10220;42.716;23.306;2022-11-04T11:29:29;94939.38;;;19.32;70.87
20119;BME280;10220;42.716;23.306;2022-11-04T11:31:58;94934.38;;;19.80;68.18
20119;BME280;10220;42.716;23.306;2022-11-04T11:34:31;94931.00;;;19.59;68.42
20119;BME280;10220;42.716;23.306;2022-11-04T11:36:58;94931.22;;;19.58;68.60
20119;BME280;10220;42.716;23.306;2022-11-04T11:39:32;94915.47;;;19.43;68.94
20119;BME280;10220;42.716;23.306;2022-11-04T11:42:02;94927.28;;;19.55;67.27
20119;BME280;10220;42.716;23.306;2022-11-04T11:44:38;94918.09;;;19.63;65.54
20119;BME280;10220;42.716;23.306;2022-11-04T11:52:37;94902.59;;;19.42;66.05
20119;BME280;10220;42.716;23.306;2022-11-04T11:58:02;94903.13;;;19.58;65.20
20119;BME280;10220;42.716;23.306;2022-11-04T12:00:31;94860.03;;;19.49;64.59
20119;BME280;10220;42.716;23.306;2022-11-04T12:05:46;94888.59;;;19.96;63.71
20119;BME280;10220;42.716;23.306;2022-11-04T12:10:53;94859.47;;;19.62;65.02
20119;BME280;10220;42.716;23.306;2022-11-04T12:13:38;94855.25;;;19.56;65.06
20119;BME280;10220;42.716;23.306;2022-11-04T12:19:08;94889.97;;;19.63;65.32
20119;BME280;10220;42.716;23.306;2022-11-04T12:21:46;94882.34;;;19.42;67.47
20119;BME280;10220;42.716;23.306;2022-11-04T12:29:57;94901.56;;;19.43;67.98
20119;BME280;10220;42.716;23.306;2022-11-04T12:40:28;94890.47;;;19.55;69.28
20119;BME280;10220;42.716;23.306;2022-11-04T12:48:05;94864.97;;;19.71;66.86
20119;BME280;10220;42.716;23.306;2022-11-04T12:56:09;94851.53;;;19.77;65.83
20119;BME280;10220;42.716;23.306;2022-11-04T13:01:09;94859.97;;;19.74;66.70
20119;BME280;10220;42.716;23.306;2022-11-04T13:06:27;94857.91;;;19.61;64.11
20119;BME280;10220;42.716;23.306;2022-11-04T13:08:59;94848.16;;;19.62;64.98
20119;BME280;10220;42.716;23.306;2022-11-04T13:14:14;94840.56;;;19.45;66.76
20119;BME280;10220;42.716;23.306;2022-11-04T13:16:46;94859.25;;;19.39;67.32
20119;BME280;10220;42.716;23.306;2022-11-04T13:19:27;94847.94;;;19.34;68.14
20119;BME280;10220;42.716;23.306;2022-11-04T13:21:57;94850.31;;;19.30;69.50
20119;BME280;10220;42.716;23.306;2022-11-04T13:24:36;94872.09;;;19.36;70.66
20119;BME280;10220;42.716;23.306;2022-11-04T13:27:09;94865.53;;;19.48;70.31
20119;BME280;10220;42.716;23.306;2022-11-04T13:29:38;94856.88;;;19.43;70.36
20119;BME280;10220;42.716;23.306;2022-11-04T13:32:16;94814.59;;;19.09;71.24
20119;BME280;10220;42.716;23.306;2022-11-04T13:37:51;94860.56;;;19.42;72.06
20119;BME280;10220;42.716;23.306;2022-11-04T13:40:25;94812.47;;;19.01;72.51
20119;BME280;10220;42.716;23.306;2022-11-04T13:45:48;94844.28;;;19.15;75.04
20119;BME280;10220;42.716;23.306;2022-11-04T13:48:18;94805.91;;;18.99;75.17
20119;BME280;10220;42.716;23.306;2022-11-04T13:51:09;94837.94;;;19.31;74.41
20119;BME280;10220;42.716;23.306;2022-11-04T13:53:45;94845.28;;;19.39;73.85
20119;BME280;10220;42.716;23.306;2022-11-04T13:56:50;94834.00;;;19.33;74.38
20119;BME280;10220;42.716;23.306;2022-11-04T13:59:28;94846.09;;;19.29;75.03
20119;BME280;10220;42.716;23.306;2022-11-04T14:04:42;94848.50;;;19.26;75.89
20119;BME280;10220;42.716;23.306;2022-11-04T14:07:12;94799.59;;;18.95;75.74
20119;BME280;10220;42.716;23.306;2022-11-04T14:14:49;94827.94;;;18.93;79.01
20119;BME280;10220;42.716;23.306;2022-11-04T14:30:59;94824.53;;;18.73;81.99
20119;BME280;10220;42.716;23.306;2022-11-04T14:38:59;94818.97;;;18.44;83.14
20119;BME280;10220;42.716;23.306;2022-11-04T14:46:42;94829.72;;;18.43;84.61
20119;BME280;10220;42.716;23.306;2022-11-04T14:57:42;94820.44;;;18.16;85.86
20119;BME280;10220;42.716;23.306;2022-11-04T15:00:36;94787.34;;;18.05;86.75
20119;BME280;10220;42.716;23.306;2022-11-04T15:05:36;94790.19;;;17.88;87.38
20119;BME280;10220;42.716;23.306;2022-11-04T15:11:25;94810.84;;;17.80;88.20
20119;BME280;10220;42.716;23.306;2022-11-04T15:16:38;94806.38;;;17.75;89.03
20119;BME280;10220;42.716;23.306;2022-11-04T15:19:07;94822.59;;;17.67;90.35
20119;BME280;10220;42.716;23.306;2022-11-04T15:21:38;94746.81;;;17.15;91.25
20119;BME280;10220;42.716;23.306;2022-11-04T15:24:04;94811.22;;;17.47;91.87
20119;BME280;10220;42.716;23.306;2022-11-04T15:26:31;94774.25;;;17.03;93.59
20119;BME280;10220;42.716;23.306;2022-11-04T15:29:00;94772.75;;;17.11;93.24
20119;BME280;10220;42.716;23.306;2022-11-04T15:31:29;94809.59;;;17.10;94.64
20119;BME280;10220;42.716;23.306;2022-11-04T15:33:57;94813.78;;;17.06;95.41
20119;BME280;10220;42.716;23.306;2022-11-04T15:36:27;94834.75;;;17.11;96.31
20119;BME280;10220;42.716;23.306;2022-11-04T15:39:22;94820.34;;;17.08;96.74
20119;BME280;10220;42.716;23.306;2022-11-04T15:41:49;94827.38;;;17.03;96.82